Time;durP1;ratioP1;P1;durP2;ratioP2;P2;SDS_P1;SDS_P2;PMS_P1;PMS_P2;Temp;Humidity;BMP_temperature;BMP_pressure;BME280_temperature;BME280_humidity;BME280_pressure;Samples;Min_cycle;Max_cycle;Signal;HPM_P1;HPM_P2
2024/02/04 05:04:18;;;;;;;2.37;2.17;;;8.60;97.30;;;;;;5046613;28;20422;-92
2024/02/04 05:07:18;;;;;;;2.97;1.90;;;8.60;97.30;;;;;;5022030;28;20491;-91
2024/02/04 05:09:50;;;;;;;0.80;0.70;;;8.60;97.30;;;;;;5010743;28;20424;-94
2024/02/04 05:12:18;;;;;;;1.20;1.10;;;8.60;97.30;;;;;;5029013;28;20442;-93
2024/02/04 05:15:10;;;;;;;2.93;1.70;;;8.60;97.30;;;;;;5039790;28;20498;-94
2024/02/04 05:17:41;;;;;;;1.10;1.00;;;8.60;97.30;;;;;;5015952;28;20462;-94
2024/02/04 05:20:38;;;;;;;0.97;0.93;;;8.60;97.30;;;;;;5031665;28;20425;-92
2024/02/04 05:23:10;;;;;;;1.77;1.30;;;8.60;97.30;;;;;;5031895;28;20423;-93
2024/02/04 05:25:38;;;;;;;2.50;2.03;;;8.60;97.30;;;;;;5041176;28;20431;-94
2024/02/04 05:28:07;;;;;;;1.17;1.07;;;8.60;97.30;;;;;;5039703;28;20410;-93
2024/02/04 05:30:38;;;;;;;15.80;1.77;;;8.60;97.30;;;;;;5034017;28;20418;-94
2024/02/04 05:33:16;;;;;;;1.43;1.30;;;8.60;97.30;;;;;;5048352;28;20430;-94
2024/02/04 05:35:56;;;;;;;1.47;1.37;;;8.60;97.30;;;;;;5056842;28;20450;-94
2024/02/04 05:38:28;;;;;;;4.40;2.50;;;8.60;97.30;;;;;;5047835;28;20561;-94
2024/02/04 05:40:59;;;;;;;1.63;1.53;;;8.50;97.30;;;;;;5046535;28;20509;-89
2024/02/04 05:43:59;;;;;;;2.27;2.10;;;8.50;97.30;;;;;;5048452;28;20435;-94
2024/02/04 05:46:28;;;;;;;2.40;2.20;;;8.50;97.30;;;;;;5027602;28;20971;-93
2024/02/04 05:49:10;;;;;;;2.90;1.50;;;8.50;97.30;;;;;;5006459;28;20428;-93
2024/02/04 05:51:40;;;;;;;1.20;1.10;;;8.50;97.30;;;;;;5010881;28;20452;-93
2024/02/04 05:54:30;;;;;;;;;;;;;;;;;;;;;
2024/02/04 05:57:39;;;;;;;1.10;1.00;;;8.40;97.30;;;;;;5025708;28;20551;-94
2024/02/04 06:00:10;;;;;;;1.77;1.67;;;8.40;97.30;;;;;;4989136;28;20941;-93
2024/02/04 06:03:10;;;;;;;13.40;2.17;;;8.40;97.30;;;;;;5003201;28;20847;-93
2024/02/04 06:05:49;;;;;;;2.93;1.43;;;8.40;97.30;;;;;;4999289;28;20435;-94
2024/02/04 06:09:10;;;;;;;1.70;1.60;;;8.50;97.30;;;;;;5018626;28;20438;-94
2024/02/04 06:12:09;;;;;;;;;;;;;;;;;;;;;
2024/02/04 06:19:00;;;;;;;1.67;0.97;;;8.60;97.30;;;;;;4962563;28;20478;-93
2024/02/04 06:21:50;;;;;;;1.43;1.33;;;8.60;97.30;;;;;;4917720;29;20455;-93
2024/02/04 06:28:29;;;;;;;;;;;;;;;;;;;;;
2024/02/04 06:31:30;;;;;;;1.87;1.77;;;8.70;97.30;;;;;;4846356;29;21273;-95
2024/02/04 06:34:10;;;;;;;2.97;1.50;;;8.70;97.30;;;;;;4845910;29;20420;-95
2024/02/04 06:36:50;;;;;;;1.10;1.00;;;8.70;97.30;;;;;;4918822;29;20428;-92
2024/02/04 06:39:39;;;;;;;1.17;1.07;;;8.70;97.30;;;;;;4897803;29;20429;-94
2024/02/04 06:42:17;;;;;;;2.50;1.50;;;8.80;97.30;;;;;;4919734;29;20479;-93
2024/02/04 06:45:29;;;;;;;1.37;1.27;;;8.80;97.30;;;;;;4940644;28;21019;-93
2024/02/04 06:48:08;;;;;;;1.00;0.90;;;8.80;97.30;;;;;;5028153;28;20412;-91
2024/02/04 06:50:39;;;;;;;1.10;1.00;;;8.90;97.30;;;;;;5026173;28;20450;-92
2024/02/04 06:53:20;;;;;;;1.87;1.53;;;8.90;97.30;;;;;;5030018;28;20445;-92
2024/02/04 06:56:19;;;;;;;0.93;0.83;;;8.90;97.30;;;;;;5020579;28;20955;-92
2024/02/04 06:58:50;;;;;;;1.40;1.30;;;8.90;97.30;;;;;;5048252;28;20467;-91
2024/02/04 07:01:30;;;;;;;0.90;0.90;;;9.00;97.30;;;;;;5019483;28;20450;-93
2024/02/04 07:04:17;;;;;;;1.13;1.10;;;9.00;97.30;;;;;;5031049;28;20437;-92
2024/02/04 07:07:08;;;;;;;;;;;;;;;;;;;;;
2024/02/04 07:09:50;;;;;;;1.30;1.20;;;9.10;97.30;;;;;;5055929;28;20513;-94
2024/02/04 07:12:19;;;;;;;1.33;1.23;;;9.10;97.30;;;;;;5037831;28;20446;-92
2024/02/04 07:14:51;;;;;;;0.90;0.80;;;9.10;97.30;;;;;;5038149;28;20434;-93
2024/02/04 07:17:19;;;;;;;1.23;1.03;;;9.10;97.30;;;;;;5036732;28;20522;-93
2024/02/04 07:19:50;;;;;;;0.90;0.80;;;9.20;97.30;;;;;;5031858;28;20423;-92
2024/02/04 07:22:16;;;;;;;0.90;0.80;;;9.20;97.30;;;;;;5037097;23;20563;-71
2024/02/04 07:24:42;;;;;;;3.00;2.80;;;9.20;97.30;;;;;;5046162;28;20941;-72
2024/02/04 07:27:07;;;;;;;1.10;1.00;;;9.20;97.30;;;;;;5046706;28;20183;-70
2024/02/04 07:29:33;;;;;;;1.20;1.10;;;9.20;97.30;;;;;;5048286;28;20406;-72
2024/02/04 07:31:58;;;;;;;1.00;0.90;;;9.20;97.30;;;;;;5047753;28;20568;-70
2024/02/04 07:34:24;;;;;;;1.20;1.10;;;9.30;97.30;;;;;;5047606;28;20219;-75
2024/02/04 07:36:52;;;;;;;1.07;1.07;;;9.30;97.30;;;;;;5047652;28;20215;-71
2024/02/04 07:39:17;;;;;;;1.17;1.07;;;9.30;97.30;;;;;;5046765;28;20479;-75
2024/02/04 07:41:43;;;;;;;1.00;0.90;;;9.30;97.30;;;;;;5046623;28;20442;-70
2024/02/04 07:44:09;;;;;;;1.37;1.27;;;9.30;97.30;;;;;;5048216;28;20259;-80
2024/02/04 07:46:34;;;;;;;1.10;1.00;;;9.30;97.30;;;;;;5047297;28;20185;-72
2024/02/04 07:49:00;;;;;;;1.40;1.20;;;9.30;97.30;;;;;;5046969;28;20255;-71
2024/02/04 07:51:25;;;;;;;0.90;0.80;;;9.30;97.30;;;;;;5046681;28;20199;-70
2024/02/04 07:53:51;;;;;;;1.30;1.20;;;9.40;97.30;;;;;;5048872;28;20180;-70
2024/02/04 07:56:16;;;;;;;3.13;2.93;;;9.40;97.30;;;;;;5052226;28;20183;-74
2024/02/04 07:58:42;;;;;;;3.40;1.47;;;9.40;97.30;;;;;;5047408;28;20637;-70
2024/02/04 08:01:07;;;;;;;1.33;1.00;;;9.40;97.30;;;;;;5050651;28;20235;-70
2024/02/04 08:03:33;;;;;;;1.17;1.17;;;9.50;97.30;;;;;;5052175;28;20176;-70
2024/02/04 08:05:58;;;;;;;1.00;0.90;;;9.50;97.30;;;;;;5051948;28;20229;-70
2024/02/04 08:08:24;;;;;;;0.90;0.80;;;9.50;97.30;;;;;;5050741;28;20291;-71
2024/02/04 08:10:49;;;;;;;0.80;0.70;;;9.50;97.30;;;;;;5052069;28;20856;-71
2024/02/04 08:13:15;;;;;;;1.03;1.00;;;9.60;97.30;;;;;;5050643;28;20233;-75
2024/02/04 08:15:41;;;;;;;0.80;0.70;;;9.60;97.30;;;;;;5033952;28;20678;-72
2024/02/04 08:18:06;;;;;;;1.10;1.00;;;9.60;97.30;;;;;;5050138;28;20215;-72
2024/02/04 08:20:32;;;;;;;0.80;0.70;;;9.60;97.30;;;;;;5033471;28;20253;-71
2024/02/04 08:22:57;;;;;;;1.20;1.10;;;9.60;97.30;;;;;;5051664;28;20180;-71
2024/02/04 08:25:22;;;;;;;1.33;1.23;;;9.60;97.30;;;;;;5033403;28;20668;-69
2024/02/04 08:27:48;;;;;;;2.77;1.67;;;9.60;97.30;;;;;;5045484;28;20191;-69
2024/02/04 08:30:14;;;;;;;1.13;1.03;;;9.70;97.30;;;;;;5067688;28;20187;-70
2024/02/04 08:32:39;;;;;;;0.90;0.80;;;9.70;97.30;;;;;;5054686;28;20203;-70
2024/02/04 08:35:06;;;;;;;1.67;1.57;;;9.70;97.30;;;;;;5055535;28;20190;-69
2024/02/04 08:37:35;;;;;;;0.80;0.70;;;9.70;97.30;;;;;;5051108;28;20326;-69
2024/02/04 08:40:01;;;;;;;0.90;0.80;;;9.80;97.30;;;;;;5060132;28;20406;-69
2024/02/04 08:42:26;;;;;;;0.90;0.80;;;9.80;97.30;;;;;;5051451;28;20434;-71
2024/02/04 08:44:52;;;;;;;0.90;0.80;;;9.80;97.30;;;;;;5058523;28;20172;-73
2024/02/04 08:47:18;;;;;;;0.90;0.80;;;9.80;97.30;;;;;;5049864;28;20183;-72
2024/02/04 08:49:44;;;;;;;0.90;0.80;;;9.80;97.30;;;;;;5057305;28;20413;-74
2024/02/04 08:52:10;;;;;;;1.23;1.00;;;9.80;97.30;;;;;;5057430;28;20537;-74
2024/02/04 08:54:36;;;;;;;0.90;0.80;;;9.80;97.30;;;;;;5058353;28;20675;-71
2024/02/04 08:57:02;;;;;;;1.00;0.90;;;9.80;97.30;;;;;;5049755;28;20468;-71
2024/02/04 08:59:27;;;;;;;0.97;0.90;;;9.80;97.30;;;;;;5067508;28;20643;-68
2024/02/04 09:01:53;;;;;;;1.13;1.03;;;9.80;97.30;;;;;;5048195;28;20295;-70
2024/02/04 09:04:19;;;;;;;0.80;0.70;;;9.80;97.30;;;;;;5033015;28;20187;-70
2024/02/04 09:06:44;;;;;;;1.10;1.00;;;9.80;97.30;;;;;;5049673;28;20188;-68
2024/02/04 09:09:10;;;;;;;1.20;1.10;;;9.80;97.30;;;;;;5050805;28;20271;-72
2024/02/04 09:11:35;;;;;;;1.00;0.90;;;9.90;97.30;;;;;;5050720;28;20211;-70
2024/02/04 09:14:01;;;;;;;0.83;0.73;;;9.90;97.30;;;;;;5049755;28;20188;-70
2024/02/04 09:16:27;;;;;;;0.80;0.70;;;9.90;97.30;;;;;;5050203;28;20184;-69
2024/02/04 09:18:53;;;;;;;0.90;0.80;;;9.90;97.30;;;;;;5032631;28;20211;-67
2024/02/04 09:21:18;;;;;;;1.03;1.03;;;9.90;97.30;;;;;;5029055;28;20482;-68
2024/02/04 09:23:44;;;;;;;0.83;0.73;;;9.90;97.30;;;;;;5029327;28;20185;-69
2024/02/04 09:26:09;;;;;;;0.90;0.80;;;9.90;97.30;;;;;;5030494;28;20187;-74
2024/02/04 09:28:35;;;;;;;1.10;1.00;;;9.90;97.30;;;;;;5029663;28;20555;-68
2024/02/04 09:31:01;;;;;;;0.97;0.87;;;9.90;97.30;;;;;;5029848;28;20335;-68
2024/02/04 09:33:26;;;;;;;0.80;0.70;;;10.00;97.30;;;;;;5029743;28;20324;-69
2024/02/04 09:35:52;;;;;;;1.30;1.17;;;10.00;97.30;;;;;;5030185;28;20270;-69
2024/02/04 09:38:17;;;;;;;0.90;0.80;;;10.00;97.30;;;;;;5029154;28;20211;-68
2024/02/04 09:40:43;;;;;;;0.90;0.80;;;9.90;97.30;;;;;;5028839;28;20656;-69
2024/02/04 09:43:09;;;;;;;0.80;0.70;;;9.90;97.30;;;;;;5029251;28;20208;-70
2024/02/04 09:45:35;;;;;;;1.10;0.90;;;9.80;97.30;;;;;;5029191;28;20192;-71
2024/02/04 09:48:03;;;;;;;1.23;1.13;;;9.80;97.30;;;;;;5028799;28;20423;-70
2024/02/04 09:50:28;;;;;;;0.87;0.77;;;9.70;97.30;;;;;;5028936;28;20915;-80
2024/02/04 09:53:00;;;;;;;0.83;0.80;;;9.70;97.30;;;;;;5041798;28;20922;-69
2024/02/04 09:55:26;;;;;;;0.90;0.80;;;9.70;97.30;;;;;;5032005;28;20195;-71
2024/02/04 09:57:52;;;;;;;3.80;0.93;;;9.60;97.30;;;;;;5031758;28;20458;-71
2024/02/04 10:00:21;;;;;;;0.80;0.70;;;9.60;97.30;;;;;;5031827;28;20496;-68
2024/02/04 10:02:48;;;;;;;1.40;1.30;;;9.60;97.30;;;;;;5031982;28;20211;-68
2024/02/04 10:05:14;;;;;;;0.80;0.70;;;9.60;97.30;;;;;;5049810;28;20476;-69
2024/02/04 10:07:40;;;;;;;1.00;0.90;;;9.60;97.30;;;;;;5050068;28;20708;-69
2024/02/04 10:10:07;;;;;;;1.00;0.90;;;9.60;97.30;;;;;;5050136;28;20419;-69
2024/02/04 10:12:35;;;;;;;1.57;1.33;;;9.60;97.30;;;;;;5049753;28;20184;-72
2024/02/04 10:15:02;;;;;;;1.47;1.13;;;9.60;97.30;;;;;;5032388;28;20441;-69
2024/02/04 10:17:27;;;;;;;1.00;0.90;;;9.60;97.30;;;;;;5031393;28;20568;-69
2024/02/04 10:19:53;;;;;;;0.80;0.70;;;9.70;97.30;;;;;;5032087;28;20438;-69
2024/02/04 10:22:18;;;;;;;0.90;0.80;;;9.70;97.30;;;;;;5050345;28;20258;-74
2024/02/04 10:24:46;;;;;;;2.73;1.80;;;9.70;97.30;;;;;;5065299;28;20670;-68
2024/02/04 10:27:12;;;;;;;1.20;1.10;;;9.70;97.30;;;;;;5049849;28;20186;-72
2024/02/04 10:29:37;;;;;;;1.37;1.30;;;9.70;97.30;;;;;;5033265;28;20438;-70
2024/02/04 10:32:03;;;;;;;0.80;0.70;;;9.70;97.30;;;;;;5043030;28;20203;-68
2024/02/04 10:34:29;;;;;;;2.00;0.87;;;9.70;97.30;;;;;;5059881;28;20647;-68
2024/02/04 10:36:56;;;;;;;1.00;0.90;;;9.80;97.30;;;;;;5054844;28;20539;-68
2024/02/04 10:39:22;;;;;;;1.10;1.00;;;9.80;97.30;;;;;;5050734;28;20415;-69
2024/02/04 10:41:52;;;;;;;0.97;0.87;;;9.80;97.30;;;;;;5061021;28;20447;-68
2024/02/04 10:44:21;;;;;;;0.80;0.70;;;9.90;97.30;;;;;;5033921;28;20179;-76
2024/02/04 10:46:49;;;;;;;1.10;1.00;;;9.90;97.30;;;;;;5031361;28;20422;-68
2024/02/04 10:49:15;;;;;;;1.13;1.03;;;9.90;97.30;;;;;;5057767;28;20418;-71
2024/02/04 10:51:42;;;;;;;1.43;1.23;;;9.90;97.30;;;;;;5035385;28;20450;-70
2024/02/04 10:54:08;;;;;;;0.97;0.90;;;9.90;97.30;;;;;;5056804;28;20417;-69
2024/02/04 10:56:41;;;;;;;1.10;1.00;;;9.90;97.30;;;;;;5057972;28;20933;-69
2024/02/04 10:59:09;;;;;;;1.20;1.10;;;9.90;97.30;;;;;;5053198;28;20469;-70
2024/02/04 11:01:36;;;;;;;0.80;0.70;;;9.90;97.30;;;;;;5038965;28;20715;-71
2024/02/04 11:04:03;;;;;;;0.80;0.70;;;9.80;97.30;;;;;;5048881;28;20755;-71
2024/02/04 11:06:30;;;;;;;0.80;0.70;;;9.80;97.30;;;;;;5059114;28;20406;-70
2024/02/04 11:08:58;;;;;;;1.07;0.97;;;9.80;97.30;;;;;;5054684;28;20410;-71
2024/02/04 11:11:26;;;;;;;1.30;1.20;;;9.70;97.30;;;;;;5050207;28;20438;-78
2024/02/04 11:13:55;;;;;;;1.73;1.63;;;9.70;97.30;;;;;;5037277;28;20425;-71
2024/02/04 11:16:39;;;;;;;1.20;1.10;;;9.70;97.30;;;;;;5065827;23;20540;-91
2024/02/04 11:19:19;;;;;;;2.67;1.70;;;9.70;97.30;;;;;;5035382;28;20419;-90
2024/02/04 11:22:05;;;;;;;1.00;0.90;;;9.70;97.30;;;;;;5028973;28;20478;-90
2024/02/04 11:24:46;;;;;;;2.70;2.50;;;9.60;97.30;;;;;;5046288;28;20418;-92
2024/02/04 11:27:12;;;;;;;1.47;1.03;;;9.60;97.30;;;;;;5042954;23;20486;-82
2024/02/04 11:29:39;;;;;;;1.07;0.97;;;9.60;97.30;;;;;;5040398;28;20501;-84
2024/02/04 11:32:06;;;;;;;0.90;0.80;;;9.60;97.30;;;;;;5026973;28;20605;-84
2024/02/04 11:34:33;;;;;;;0.80;0.70;;;9.60;97.30;;;;;;5028245;28;20446;-77
2024/02/04 11:36:59;;;;;;;1.00;0.90;;;9.60;97.30;;;;;;5027828;28;20463;-83
2024/02/04 11:39:25;;;;;;;1.20;1.00;;;9.60;97.30;;;;;;5027928;28;20453;-84
2024/02/04 11:41:51;;;;;;;1.57;1.47;;;9.70;97.30;;;;;;5029537;28;20922;-83
2024/02/04 11:44:21;;;;;;;1.67;1.00;;;9.70;97.30;;;;;;5027667;28;20206;-82
2024/02/04 11:46:47;;;;;;;1.43;1.00;;;9.70;97.30;;;;;;5028788;28;20423;-84
2024/02/04 11:49:24;;;;;;;0.93;0.87;;;9.70;97.30;;;;;;5027600;28;20434;-79
2024/02/04 11:51:53;;;;;;;1.03;0.93;;;9.80;97.30;;;;;;5026342;28;20202;-82
2024/02/04 11:54:20;;;;;;;1.10;0.90;;;9.80;97.30;;;;;;5028890;28;20552;-80
2024/02/04 11:56:52;;;;;;;1.73;1.63;;;9.80;97.30;;;;;;5027776;28;20512;-79
2024/02/04 11:59:21;;;;;;;2.07;1.53;;;9.90;97.30;;;;;;5028944;28;20411;-79
2024/02/04 12:01:47;;;;;;;1.93;1.80;;;9.90;97.30;;;;;;5028977;28;20449;-79
2024/02/04 12:04:15;;;;;;;1.10;1.00;;;10.00;97.30;;;;;;5028413;28;20506;-84
2024/02/04 12:06:41;;;;;;;1.00;0.90;;;10.10;97.30;;;;;;5028141;28;20927;-81
2024/02/04 12:09:08;;;;;;;0.90;0.80;;;10.20;97.30;;;;;;5028730;28;20416;-81
2024/02/04 12:11:41;;;;;;;1.00;0.90;;;10.10;97.30;;;;;;5029031;28;20439;-84
2024/02/04 12:14:07;;;;;;;1.90;1.77;;;10.10;97.30;;;;;;5027853;28;20427;-79
2024/02/04 12:16:36;;;;;;;0.90;0.80;;;10.20;97.30;;;;;;5028219;28;20415;-83
2024/02/04 12:19:05;;;;;;;1.80;1.37;;;10.10;97.30;;;;;;5027466;28;20493;-80
2024/02/04 12:21:32;;;;;;;1.30;1.20;;;10.10;97.30;;;;;;5027659;28;20943;-75
2024/02/04 12:23:58;;;;;;;2.33;2.13;;;10.10;97.30;;;;;;5028589;28;20518;-81
2024/02/04 12:26:25;;;;;;;1.00;0.90;;;10.10;97.30;;;;;;5030241;28;20419;-80
2024/02/04 12:28:51;;;;;;;2.50;1.90;;;10.10;97.30;;;;;;5054288;28;20845;-85
2024/02/04 12:31:18;;;;;;;1.30;1.13;;;10.10;97.30;;;;;;5068559;28;20430;-79
2024/02/04 12:33:52;;;;;;;1.60;1.50;;;10.10;97.30;;;;;;5076657;28;20470;-80
2024/02/04 12:36:17;;;;;;;0.80;0.70;;;10.10;97.30;;;;;;5050585;28;20430;-81
2024/02/04 12:38:51;;;;;;;1.07;0.97;;;10.00;97.30;;;;;;5059016;28;20468;-79
2024/02/04 12:41:16;;;;;;;2.00;1.00;;;10.00;97.30;;;;;;5058046;28;20282;-83
2024/02/04 12:43:42;;;;;;;2.00;1.87;;;10.10;97.30;;;;;;5062540;28;20482;-82
2024/02/04 12:46:08;;;;;;;1.07;0.97;;;10.10;97.30;;;;;;5075636;28;20179;-79
2024/02/04 12:48:35;;;;;;;2.13;1.97;;;10.10;97.30;;;;;;5039605;28;20198;-84
2024/02/04 12:51:00;;;;;;;2.13;1.97;;;10.20;97.30;;;;;;5064454;28;20452;-84
2024/02/04 12:53:26;;;;;;;1.00;0.90;;;10.30;97.30;;;;;;5083614;28;20424;-83
2024/02/04 12:55:59;;;;;;;2.40;2.13;;;10.30;97.30;;;;;;5081302;28;20194;-83
2024/02/04 12:58:24;;;;;;;1.53;1.43;;;10.40;97.30;;;;;;5062291;28;20210;-83
2024/02/04 13:01:00;;;;;;;1.23;1.13;;;10.40;97.30;;;;;;5054209;28;20507;-83
2024/02/04 13:03:26;;;;;;;0.90;0.80;;;10.40;97.30;;;;;;5053041;28;20194;-82
2024/02/04 13:05:58;;;;;;;1.57;1.20;;;10.40;97.30;;;;;;5083196;28;20421;-83
2024/02/04 13:08:24;;;;;;;2.60;1.30;;;10.40;97.30;;;;;;5062226;28;20190;-82
2024/02/04 13:10:56;;;;;;;2.90;1.43;;;10.50;97.30;;;;;;5057504;28;20439;-81
2024/02/04 13:13:21;;;;;;;2.50;1.10;;;10.40;97.30;;;;;;5060808;28;20183;-82
2024/02/04 13:15:47;;;;;;;1.73;1.47;;;10.40;97.30;;;;;;5061862;28;20439;-81
2024/02/04 13:18:15;;;;;;;1.03;1.00;;;10.40;97.30;;;;;;5059189;28;20203;-80
2024/02/04 13:20:42;;;;;;;1.10;0.93;;;10.40;97.30;;;;;;5059318;28;20662;-81
2024/02/04 13:23:10;;;;;;;1.70;0.90;;;10.40;97.30;;;;;;5083274;28;20416;-80
2024/02/04 13:25:36;;;;;;;0.80;0.70;;;10.40;97.30;;;;;;5058713;28;20425;-80
2024/02/04 13:28:03;;;;;;;1.30;1.20;;;10.40;97.30;;;;;;5074530;28;20555;-78
2024/02/04 13:30:28;;;;;;;1.53;1.20;;;10.40;97.30;;;;;;5071683;28;20636;-81
2024/02/04 13:32:54;;;;;;;1.00;0.90;;;10.30;97.30;;;;;;5053355;28;20504;-80
2024/02/04 13:35:19;;;;;;;1.43;1.33;;;10.30;97.30;;;;;;5081784;28;20190;-76
2024/02/04 13:37:50;;;;;;;1.37;1.27;;;10.30;97.30;;;;;;5056529;28;20690;-81
2024/02/04 13:40:19;;;;;;;1.30;1.20;;;10.40;97.30;;;;;;5060443;28;20179;-81
2024/02/04 13:42:46;;;;;;;1.20;1.10;;;10.30;97.30;;;;;;5077015;28;20515;-80
2024/02/04 13:45:15;;;;;;;1.33;1.23;;;10.30;97.30;;;;;;5068469;28;20406;-80
2024/02/04 13:47:42;;;;;;;0.90;0.80;;;10.30;97.30;;;;;;5076342;28;20451;-79
2024/02/04 13:50:09;;;;;;;1.43;1.00;;;10.20;97.30;;;;;;5067163;28;20417;-81
2024/02/04 13:52:35;;;;;;;1.13;1.03;;;10.20;97.30;;;;;;5058977;28;20488;-82
2024/02/04 13:55:02;;;;;;;2.90;1.40;;;10.20;97.30;;;;;;5048530;28;20421;-79
2024/02/04 13:57:27;;;;;;;1.00;0.90;;;10.10;97.30;;;;;;5038866;28;20607;-79
2024/02/04 13:59:54;;;;;;;0.80;0.70;;;10.10;97.30;;;;;;5063116;28;20500;-77
2024/02/04 14:02:19;;;;;;;3.33;0.90;;;10.10;97.30;;;;;;5053243;28;20286;-79
2024/02/04 14:04:46;;;;;;;0.90;0.80;;;10.10;97.30;;;;;;5064695;28;20433;-79
2024/02/04 14:07:12;;;;;;;0.90;0.80;;;10.10;97.30;;;;;;5053727;28;20186;-81
2024/02/04 14:09:37;;;;;;;1.10;1.00;;;10.00;97.30;;;;;;5076331;28;20794;-81
2024/02/04 14:12:03;;;;;;;0.97;0.87;;;10.00;97.30;;;;;;5061269;28;20444;-81
2024/02/04 14:14:30;;;;;;;1.03;0.97;;;10.00;97.30;;;;;;5058084;28;20634;-80
2024/02/04 14:16:55;;;;;;;1.27;0.93;;;10.00;97.30;;;;;;5064325;28;20594;-79
2024/02/04 14:19:21;;;;;;;1.57;0.93;;;10.00;97.30;;;;;;5058926;28;20425;-79
2024/02/04 14:21:46;;;;;;;2.17;1.03;;;10.00;97.30;;;;;;5072264;28;20359;-80
2024/02/04 14:24:12;;;;;;;0.80;0.70;;;10.00;97.30;;;;;;5057298;28;20722;-79
2024/02/04 14:26:38;;;;;;;0.93;0.83;;;10.00;97.30;;;;;;5075210;28;20215;-82
2024/02/04 14:29:03;;;;;;;1.20;1.10;;;10.00;97.30;;;;;;5082078;28;20413;-79
2024/02/04 14:31:29;;;;;;;1.23;1.13;;;9.90;97.30;;;;;;5078049;28;20280;-80
2024/02/04 14:33:55;;;;;;;0.90;0.80;;;9.90;97.30;;;;;;5075931;28;20267;-78
2024/02/04 14:36:21;;;;;;;0.80;0.80;;;9.90;97.30;;;;;;5074415;28;20598;-79
2024/02/04 14:38:47;;;;;;;0.90;0.80;;;9.90;97.30;;;;;;5082473;28;20488;-80
2024/02/04 14:41:12;;;;;;;0.90;0.80;;;9.80;97.30;;;;;;5054182;28;20748;-79
2024/02/04 14:43:38;;;;;;;1.80;1.30;;;9.80;97.30;;;;;;5069471;28;20561;-79
2024/02/04 14:46:04;;;;;;;0.80;0.70;;;9.80;97.30;;;;;;5058755;28;20187;-83
2024/02/04 14:48:29;;;;;;;1.20;1.10;;;9.80;97.30;;;;;;5065677;28;20446;-82
2024/02/04 14:50:57;;;;;;;1.27;0.80;;;9.80;97.30;;;;;;5072339;28;20199;-83
2024/02/04 14:53:22;;;;;;;0.90;0.80;;;9.80;97.30;;;;;;5073081;28;20760;-81
2024/02/04 14:55:48;;;;;;;0.90;0.80;;;9.80;97.30;;;;;;5072659;28;20414;-82
2024/02/04 14:58:14;;;;;;;1.07;0.97;;;9.80;97.30;;;;;;5052588;28;20481;-82
2024/02/04 15:00:39;;;;;;;1.00;1.00;;;9.80;97.30;;;;;;5057108;28;20202;-81
2024/02/04 15:03:05;;;;;;;0.87;0.77;;;9.70;97.30;;;;;;5061189;28;20261;-80
2024/02/04 15:05:30;;;;;;;1.70;1.20;;;9.70;97.30;;;;;;5067457;28;20171;-78
2024/02/04 15:07:56;;;;;;;0.90;0.80;;;9.70;97.30;;;;;;5073356;28;20180;-79
2024/02/04 15:10:22;;;;;;;0.90;0.80;;;9.70;97.30;;;;;;5053397;28;20644;-81
2024/02/04 15:12:49;;;;;;;1.00;0.90;;;9.70;97.30;;;;;;5053777;28;20172;-80
2024/02/04 15:15:15;;;;;;;0.97;0.87;;;9.70;97.30;;;;;;5051889;28;20431;-81
2024/02/04 15:17:41;;;;;;;2.10;1.77;;;9.70;97.30;;;;;;5068684;28;20518;-82
2024/02/04 15:20:08;;;;;;;1.00;0.90;;;9.70;97.30;;;;;;5058323;28;20420;-81
2024/02/04 15:22:34;;;;;;;17.53;2.60;;;9.70;97.30;;;;;;5066164;28;20453;-80
2024/02/04 15:25:00;;;;;;;1.17;1.07;;;9.60;97.30;;;;;;5048005;28;20513;-80
2024/02/04 15:27:27;;;;;;;1.33;1.27;;;9.60;97.30;;;;;;5045795;28;20218;-82
2024/02/04 15:29:55;;;;;;;1.30;1.20;;;9.60;97.30;;;;;;5077094;28;20182;-81
2024/02/04 15:32:21;;;;;;;1.10;1.00;;;9.50;97.30;;;;;;5060802;28;20768;-81
2024/02/04 15:34:47;;;;;;;0.77;0.73;;;9.40;97.30;;;;;;5055533;28;20570;-81
2024/02/04 15:37:14;;;;;;;1.40;1.30;;;9.40;97.30;;;;;;5054814;28;20980;-80
2024/02/04 15:39:39;;;;;;;1.00;0.90;;;9.40;97.30;;;;;;5064338;28;20409;-78
2024/02/04 15:42:05;;;;;;;1.10;1.00;;;9.30;97.30;;;;;;5076507;28;20447;-76
2024/02/04 15:44:32;;;;;;;1.40;1.30;;;9.30;97.30;;;;;;5064118;28;20792;-79
2024/02/04 15:46:59;;;;;;;1.13;1.03;;;9.30;97.30;;;;;;5043213;28;20501;-81
2024/02/04 15:49:26;;;;;;;1.00;0.90;;;9.30;97.30;;;;;;5044023;28;20422;-81
2024/02/04 15:51:52;;;;;;;0.90;0.80;;;9.30;97.30;;;;;;5029102;28;20442;-79
2024/02/04 15:54:19;;;;;;;1.30;1.20;;;9.30;97.30;;;;;;5060047;28;20415;-79
2024/02/04 15:56:52;;;;;;;1.43;1.33;;;9.30;97.30;;;;;;5056674;28;20553;-80
2024/02/04 15:59:21;;;;;;;0.90;0.80;;;9.20;97.30;;;;;;5046775;28;20429;-79
2024/02/04 16:01:46;;;;;;;1.00;0.90;;;9.20;97.30;;;;;;5054496;28;20432;-79
2024/02/04 16:04:16;;;;;;;2.30;1.63;;;9.20;97.30;;;;;;5072799;28;20405;-81
2024/02/04 16:06:41;;;;;;;7.23;1.70;;;9.10;97.30;;;;;;5054012;28;20179;-83
2024/02/04 16:09:08;;;;;;;1.60;1.50;;;9.00;97.30;;;;;;5027145;28;21080;-82
2024/02/04 16:11:58;;;;;;;0.93;0.83;;;9.00;97.30;;;;;;5047519;28;20256;-81
2024/02/04 16:14:25;;;;;;;5.60;1.67;;;8.90;97.30;;;;;;5047845;28;20462;-80
2024/02/04 16:17:00;;;;;;;3.50;1.53;;;8.90;97.30;;;;;;5046425;28;20527;-81
2024/02/04 16:19:26;;;;;;;1.27;1.10;;;8.90;97.30;;;;;;5044488;28;20418;-83
2024/02/04 16:21:53;;;;;;;1.80;0.87;;;8.80;97.30;;;;;;5061325;28;20547;-82
2024/02/04 16:24:18;;;;;;;2.30;1.97;;;8.80;97.30;;;;;;5058861;28;20420;-83
2024/02/04 16:26:44;;;;;;;1.00;0.90;;;8.80;97.30;;;;;;5047969;28;20473;-83
2024/02/04 16:29:09;;;;;;;2.80;1.17;;;8.70;97.30;;;;;;5067760;28;20210;-85
2024/02/04 16:31:35;;;;;;;1.00;0.90;;;8.70;97.30;;;;;;5056881;28;20571;-84
2024/02/04 16:34:00;;;;;;;0.90;0.80;;;8.70;97.30;;;;;;5064979;28;20205;-84
2024/02/04 16:36:28;;;;;;;1.10;1.00;;;8.70;97.30;;;;;;5055978;28;20401;-84
2024/02/04 16:38:53;;;;;;;1.43;1.20;;;8.70;97.30;;;;;;5047124;28;20703;-83
2024/02/04 16:41:19;;;;;;;0.93;0.83;;;8.70;97.30;;;;;;5056959;28;20534;-86
2024/02/04 16:43:45;;;;;;;1.27;0.90;;;8.70;97.30;;;;;;5083311;28;20190;-82
2024/02/04 16:46:10;;;;;;;2.83;1.20;;;8.70;97.30;;;;;;5077424;28;20168;-83
2024/02/04 16:48:36;;;;;;;1.97;1.77;;;8.70;97.30;;;;;;5055747;28;20271;-86
2024/02/04 16:51:01;;;;;;;1.20;1.10;;;8.70;97.30;;;;;;5050608;28;20205;-86
2024/02/04 16:53:27;;;;;;;1.73;1.53;;;8.70;97.30;;;;;;5051744;28;20416;-87
2024/02/04 16:55:52;;;;;;;1.87;1.20;;;8.60;97.30;;;;;;5062912;28;20191;-86
2024/02/04 16:58:18;;;;;;;2.77;1.47;;;8.60;97.30;;;;;;5048862;28;20249;-86
2024/02/04 17:00:43;;;;;;;2.80;1.33;;;8.60;97.30;;;;;;5040888;28;20211;-87
2024/02/04 17:03:10;;;;;;;1.00;0.90;;;8.60;97.30;;;;;;5048382;28;20256;-86
2024/02/04 17:05:36;;;;;;;1.00;0.90;;;8.60;97.30;;;;;;5041961;28;20649;-85
2024/02/04 17:08:03;;;;;;;1.00;0.90;;;8.60;97.30;;;;;;5058102;28;20457;-85
2024/02/04 17:10:29;;;;;;;1.43;1.33;;;8.60;97.30;;;;;;5066253;28;20475;-86
2024/02/04 17:12:55;;;;;;;3.00;1.93;;;8.60;97.30;;;;;;5063409;28;20430;-85
2024/02/04 17:15:21;;;;;;;1.37;1.30;;;8.60;97.30;;;;;;5061421;28;20910;-85
2024/02/04 17:18:00;;;;;;;0.83;0.73;;;8.60;97.30;;;;;;5063688;28;20479;-86
2024/02/04 17:20:31;;;;;;;1.00;0.90;;;8.60;97.30;;;;;;5044954;28;20435;-86
2024/02/04 17:23:00;;;;;;;1.30;1.20;;;8.60;97.30;;;;;;5055292;28;20620;-87
2024/02/04 17:25:32;;;;;;;1.20;1.10;;;8.60;97.30;;;;;;5060869;28;21020;-86
2024/02/04 17:28:03;;;;;;;2.60;2.40;;;8.60;97.30;;;;;;5042399;28;20495;-85
2024/02/04 17:30:29;;;;;;;3.17;2.00;;;8.60;97.30;;;;;;5034524;28;20442;-79
2024/02/04 17:32:55;;;;;;;1.10;1.00;;;8.60;97.30;;;;;;5055240;28;20522;-83
2024/02/04 17:35:22;;;;;;;0.80;0.70;;;8.60;97.30;;;;;;5053737;28;20475;-79
2024/02/04 17:37:49;;;;;;;1.10;1.00;;;8.60;97.30;;;;;;5053143;28;20754;-83
2024/02/04 17:40:15;;;;;;;0.90;0.80;;;8.60;97.30;;;;;;5053717;28;20413;-85
2024/02/04 17:42:40;;;;;;;1.57;1.47;;;8.60;97.30;;;;;;5063377;28;20496;-85
2024/02/04 17:45:08;;;;;;;1.00;0.90;;;8.60;97.30;;;;;;5049030;28;20337;-86
2024/02/04 17:47:35;;;;;;;1.03;0.93;;;8.60;97.30;;;;;;5053503;28;20186;-83
2024/02/04 17:50:01;;;;;;;3.13;1.40;;;8.60;97.30;;;;;;5071109;28;20417;-85
2024/02/04 17:52:30;;;;;;;2.77;1.67;;;8.60;97.30;;;;;;5053021;28;20445;-84
2024/02/04 17:54:57;;;;;;;3.20;2.40;;;8.60;97.30;;;;;;5051408;28;20421;-86
2024/02/04 17:57:23;;;;;;;0.97;0.87;;;8.60;97.30;;;;;;5052954;28;20471;-84
2024/02/04 17:59:49;;;;;;;2.30;1.53;;;8.60;97.30;;;;;;5063020;28;20422;-85
2024/02/04 18:02:15;;;;;;;2.03;1.93;;;8.60;97.30;;;;;;5046670;28;20231;-85
2024/02/04 18:04:45;;;;;;;1.93;1.20;;;8.60;97.30;;;;;;5072184;28;20448;-85
2024/02/04 18:07:10;;;;;;;1.97;1.87;;;8.60;97.30;;;;;;5052282;28;20172;-86
2024/02/04 18:09:41;;;;;;;1.00;0.90;;;8.60;97.30;;;;;;5058610;28;20413;-86
2024/02/04 18:12:07;;;;;;;1.10;1.03;;;8.60;97.30;;;;;;5053404;28;20191;-87
2024/02/04 18:14:33;;;;;;;0.93;0.87;;;8.60;97.30;;;;;;5048003;28;20434;-86
2024/02/04 18:17:08;;;;;;;1.60;1.60;;;8.60;97.30;;;;;;5051557;28;20441;-86
2024/02/04 18:19:41;;;;;;;1.37;1.27;;;8.60;97.30;;;;;;5046304;28;20432;-86
2024/02/04 18:22:10;;;;;;;1.13;1.03;;;8.60;97.30;;;;;;5045127;28;20487;-89